Strona główna
METAR-TAF:

METAR-TAF

Lotnisko :

Albert, Francja

Szerokość geograficzna: 49-58-21N, Długość geograficzna: 002-41-29E, wysokość: 111 m

Aktualna obserwacja pogody

Raport powstał 31 minut temu, godzina 06:00 UTC
Wiatr 7 kt od zachodnio-północny zachód
Temperatura 4°C
Wilgotność 93%
Ciśnienie 1020 hPa
Widzialność 10 km lub więcej
Mało chmury na wysokości 3000 ft
Przerywane chmury na wysokości 3700 ft

METAR: LFAQ 190600Z AUTO 30007KT 9999 FEW030 BKN037 04/03 Q1020 TEMPO 4500 BR

czas: 07:31 (06:31 UTC)

Prognoza

Raport powstał 1 godzina i 31 minut temu, godzina 05:00 UTC
Prognoza ważna od 19 godzina 06 UTC do 19 godzina 15 UTC
Wiatr 8 kt od zachodnio-północny zachód
Widzialność 10 km lub więcej
Rozproszone chmury na wysokości 3000 ft
Przejściowo
od 19 godzina 06 UTC do 19 godzina 09 UTC
Widzialność: 4500 m
zamglenie

TAF: LFAQ 190500Z 1906/1915 30008KT 9999 SCT030 TEMPO 1906/1909 4500 BR

Obserwacja i prognoza pogody dla ponad 4000 lotnisk (raport METAR i TAF).

Dostępne stacje oznaczono żółtymi i czerwonymi punktami na mapie.

Najedź kursorem aby zobaczyć nazwę stacji.

Kliknij aby zobaczyć obserwacje i prognozy pogody.

Aby zmienić mapę: kliknij na zielony przycisk z czarnym krzyżykiem, aby powiększyć; na zielony przycisk z myślnikiem, aby pomniejszyć; na zielone strzałki, aby przejść do map sąsiednich.


METAR-TAF: